createdAt,value
2018-01-31T01:52:59.829Z,68.70
2018-01-31T01:55:27.408Z,68.70
2018-01-31T01:57:55.789Z,69.50
2018-01-31T02:00:23.362Z,68.60
2018-01-31T02:02:51.737Z,68.70
2018-01-31T02:05:20.115Z,68.60
2018-01-31T02:07:48.489Z,68.60
2018-01-31T02:10:16.090Z,68.60
2018-01-31T02:12:44.178Z,68.60
2018-01-31T02:15:11.757Z,68.70
2018-01-31T02:17:39.384Z,68.70
2018-01-31T02:20:07.004Z,68.60
2018-01-31T02:22:34.587Z,68.60
2018-01-31T02:25:02.961Z,68.70
2018-01-31T02:27:30.807Z,68.60
2018-01-31T02:29:58.373Z,68.70
2018-01-31T02:32:26.035Z,68.60
2018-01-31T02:34:53.618Z,68.10
2018-01-31T02:37:21.981Z,68.60
2018-01-31T02:39:57.444Z,68.60
2018-01-31T02:42:25.826Z,68.70
2018-01-31T02:44:54.222Z,68.60
2018-01-31T02:47:22.521Z,68.60
2018-01-31T02:49:50.231Z,68.60
2018-01-31T02:52:18.588Z,68.60
2018-01-31T02:54:46.318Z,68.60
2018-01-31T02:57:13.919Z,68.60
2018-01-31T02:59:41.545Z,68.60
2018-01-31T03:02:09.164Z,68.60
2018-01-31T03:04:36.754Z,68.60
2018-01-31T03:07:04.406Z,68.50
2018-01-31T03:09:32.150Z,68.50
2018-01-31T03:12:00.821Z,68.60
2018-01-31T03:14:29.305Z,68.60
2018-01-31T03:16:56.889Z,68.60
2018-01-31T03:19:24.548Z,68.50
2018-01-31T03:21:52.917Z,68.60
2018-01-31T03:24:21.342Z,69.10
2018-01-31T03:26:48.928Z,68.60
2018-01-31T03:29:16.522Z,68.50
2018-01-31T03:31:44.926Z,69.20
2018-01-31T03:34:12.535Z,68.60
2018-01-31T03:36:40.251Z,68.60
2018-01-31T03:39:07.921Z,68.50
2018-01-31T03:41:35.569Z,68.60
2018-01-31T03:44:03.963Z,68.50
2018-01-31T03:46:31.726Z,68.50
2018-01-31T03:48:59.335Z,68.60
2018-01-31T03:51:26.951Z,68.60
2018-01-31T03:53:54.541Z,68.60
2018-01-31T03:56:22.138Z,68.60
2018-01-31T03:58:49.744Z,68.60
2018-01-31T04:01:17.327Z,68.50
2018-01-31T04:03:45.148Z,68.50
2018-01-31T04:06:13.481Z,68.60
2018-01-31T04:08:41.118Z,68.60
2018-01-31T04:11:08.699Z,68.50
2018-01-31T04:13:36.281Z,68.50
2018-01-31T04:16:03.969Z,68.50
2018-01-31T04:18:32.311Z,68.50
2018-01-31T04:21:00.636Z,68.60
2018-01-31T04:23:28.324Z,68.50
2018-01-31T04:25:55.918Z,68.60
2018-01-31T04:28:23.504Z,68.60
2018-01-31T04:30:51.872Z,68.60
2018-01-31T04:33:20.282Z,68.60
2018-01-31T04:35:48.666Z,68.60
2018-01-31T04:38:16.257Z,68.50
2018-01-31T04:40:43.845Z,68.60
2018-01-31T04:43:11.440Z,68.60
2018-01-31T04:45:39.787Z,68.50
2018-01-31T04:48:07.352Z,68.50
2018-01-31T04:50:34.931Z,68.60
2018-01-31T04:53:03.318Z,68.60
2018-01-31T04:55:31.824Z,68.60
2018-01-31T04:57:59.467Z,68.50
2018-01-31T05:00:27.859Z,68.50
2018-01-31T05:02:55.537Z,68.50
2018-01-31T05:05:23.137Z,68.50
2018-01-31T05:07:50.715Z,68.50
2018-01-31T05:10:18.383Z,68.50
2018-01-31T05:12:46.756Z,68.60
2018-01-31T05:15:14.325Z,68.50
2018-01-31T05:17:41.998Z,68.80
2018-01-31T05:20:10.365Z,69.30
2018-01-31T05:22:38.777Z,68.50
2018-01-31T05:25:06.430Z,68.50
2018-01-31T05:27:34.016Z,68.50
2018-01-31T05:30:01.849Z,68.50
2018-01-31T05:32:29.453Z,68.50
2018-01-31T05:34:57.233Z,68.50
2018-01-31T05:37:24.952Z,68.50
2018-01-31T05:39:52.553Z,68.50
2018-01-31T05:42:20.139Z,68.50
2018-01-31T05:44:47.721Z,68.50
2018-01-31T05:47:15.368Z,68.50
2018-01-31T05:49:43.096Z,68.50
2018-01-31T05:52:10.676Z,68.80
2018-01-31T05:54:38.271Z,69.30
2018-01-31T05:57:06.761Z,68.50
2018-01-31T05:59:34.334Z,68.50
2018-01-31T06:02:02.170Z,68.50
2018-01-31T06:04:30.764Z,68.60
2018-01-31T06:06:59.356Z,68.60
2018-01-31T06:09:26.973Z,68.50
2018-01-31T06:11:54.562Z,68.50
2018-01-31T06:14:22.902Z,68.50
2018-01-31T06:16:50.470Z,68.50
2018-01-31T06:19:18.052Z,69.30
2018-01-31T06:21:46.418Z,68.50
2018-01-31T06:24:13.988Z,68.50
2018-01-31T06:26:42.384Z,68.50
2018-01-31T06:29:10.731Z,68.70
2018-01-31T06:31:38.299Z,68.50
2018-01-31T06:34:05.875Z,68.50
2018-01-31T06:36:33.440Z,68.50
2018-01-31T06:39:02.060Z,68.50
2018-01-31T06:41:29.691Z,68.40
2018-01-31T06:43:58.084Z,68.50
2018-01-31T06:46:26.426Z,68.40
2018-01-31T06:48:54.015Z,68.40
2018-01-31T06:51:22.395Z,68.50
2018-01-31T06:53:50.791Z,68.50
2018-01-31T06:56:18.452Z,68.40
2018-01-31T06:58:46.103Z,68.50
2018-01-31T07:01:14.491Z,68.50
2018-01-31T07:03:43.011Z,68.40
2018-01-31T07:06:10.582Z,68.40
2018-01-31T07:08:38.183Z,68.40
2018-01-31T07:11:06.578Z,68.50
2018-01-31T07:13:34.940Z,68.50
2018-01-31T07:16:03.280Z,69.40
2018-01-31T07:18:31.081Z,68.50
2018-01-31T07:20:58.650Z,68.40
2018-01-31T07:23:27.037Z,68.50
2018-01-31T07:25:55.403Z,68.50
2018-01-31T07:28:22.971Z,68.30
2018-01-31T07:30:51.360Z,68.40
2018-01-31T07:33:19.721Z,68.50
2018-01-31T07:35:47.387Z,68.40
2018-01-31T07:38:15.766Z,69.30
2018-01-31T07:40:44.176Z,68.40
2018-01-31T07:43:11.748Z,68.40
2018-01-31T07:45:39.325Z,68.40
2018-01-31T07:48:06.940Z,68.30
2018-01-31T07:50:35.308Z,68.40
2018-01-31T07:53:02.879Z,68.40
2018-01-31T07:55:31.255Z,68.40
2018-01-31T07:58:00.158Z,68.40
2018-01-31T08:00:28.503Z,68.30
2018-01-31T08:02:56.091Z,68.30
2018-01-31T08:05:24.463Z,68.30
2018-01-31T08:07:52.804Z,68.40
2018-01-31T08:10:20.382Z,68.40
2018-01-31T08:12:47.948Z,68.30
2018-01-31T08:15:15.527Z,68.30
2018-01-31T08:17:43.913Z,68.40
2018-01-31T08:20:11.459Z,68.40
2018-01-31T08:22:39.129Z,68.40
2018-01-31T08:25:07.513Z,68.30
2018-01-31T08:27:35.896Z,68.30
2018-01-31T08:30:04.226Z,68.30
2018-01-31T08:32:32.032Z,68.20
2018-01-31T08:34:59.757Z,68.20
2018-01-31T08:37:27.332Z,68.20
2018-01-31T08:39:54.923Z,68.10
2018-01-31T08:42:23.256Z,68.20
2018-01-31T08:44:50.828Z,68.10
2018-01-31T08:47:18.396Z,68.10
2018-01-31T08:49:45.994Z,68.10
2018-01-31T08:52:14.353Z,68.10
2018-01-31T08:54:41.935Z,68.00
2018-01-31T08:57:10.268Z,68.80
2018-01-31T08:59:37.838Z,68.20
2018-01-31T09:02:05.413Z,68.20
2018-01-31T09:04:32.983Z,68.10
2018-01-31T09:07:01.563Z,68.10
2018-01-31T09:09:30.594Z,68.10
2018-01-31T09:11:58.224Z,68.00
2018-01-31T09:14:26.571Z,68.10
2018-01-31T09:16:54.145Z,68.10
2018-01-31T09:19:21.724Z,68.00
2018-01-31T09:21:50.062Z,68.20
2018-01-31T09:24:17.664Z,68.00
2018-01-31T09:26:46.060Z,68.10
2018-01-31T09:29:14.407Z,68.00
2018-01-31T09:31:42.104Z,68.00
2018-01-31T09:34:09.754Z,68.00
2018-01-31T09:36:38.136Z,68.00
2018-01-31T09:39:06.483Z,68.00
2018-01-31T09:41:34.167Z,68.00
2018-01-31T09:44:01.929Z,67.90
2018-01-31T09:46:29.508Z,68.00
2018-01-31T09:48:57.880Z,68.00
2018-01-31T09:51:26.216Z,67.90
2018-01-31T09:53:53.788Z,67.90
2018-01-31T09:56:21.361Z,67.90
2018-01-31T09:58:49.037Z,68.00
2018-01-31T10:01:16.605Z,67.90
2018-01-31T10:03:45.085Z,68.80
2018-01-31T10:06:13.455Z,68.00
2018-01-31T10:08:41.127Z,68.00
2018-01-31T10:11:09.517Z,68.00
2018-01-31T10:13:37.856Z,68.00
2018-01-31T10:16:05.436Z,68.00
2018-01-31T10:18:33.003Z,67.90
2018-01-31T10:21:00.754Z,67.90
2018-01-31T10:23:28.369Z,67.90
2018-01-31T10:25:55.964Z,67.90
2018-01-31T10:28:23.530Z,67.90
2018-01-31T10:30:51.121Z,67.80
2018-01-31T10:33:19.470Z,67.90
2018-01-31T10:35:47.068Z,67.80
2018-01-31T10:38:15.431Z,67.70
2018-01-31T10:40:43.120Z,67.70
2018-01-31T10:43:10.758Z,67.30
2018-01-31T10:45:38.326Z,67.90
2018-01-31T10:48:06.699Z,67.80
2018-01-31T10:50:34.267Z,67.80
2018-01-31T10:53:02.937Z,67.90
2018-01-31T10:57:28.597Z,67.80
2018-01-31T10:57:59.198Z,67.90
2018-01-31T11:00:28.307Z,67.70
2018-01-31T11:02:56.679Z,67.90
2018-01-31T11:05:25.055Z,67.90
2018-01-31T11:07:53.427Z,67.70
2018-01-31T11:10:20.990Z,67.70
2018-01-31T11:12:48.568Z,67.90
2018-01-31T11:15:16.923Z,67.70
2018-01-31T11:17:44.499Z,67.70
2018-01-31T11:20:12.869Z,67.90
2018-01-31T11:22:40.440Z,67.80
2018-01-31T11:25:08.790Z,67.70
2018-01-31T11:27:36.371Z,67.70
2018-01-31T11:30:04.043Z,67.90
2018-01-31T11:32:32.394Z,67.90
2018-01-31T11:34:59.972Z,67.70
2018-01-31T11:37:28.430Z,67.80
2018-01-31T11:39:56.014Z,67.90
2018-01-31T11:42:23.595Z,67.90
2018-01-31T11:44:51.983Z,67.90
2018-01-31T11:47:19.572Z,67.70
2018-01-31T11:49:47.188Z,67.90
2018-01-31T11:52:15.550Z,67.90
2018-01-31T11:54:43.227Z,67.80
2018-01-31T11:57:11.602Z,67.90
2018-01-31T11:59:39.266Z,68.50
2018-01-31T12:02:07.655Z,67.80
2018-01-31T12:04:36.028Z,68.00
2018-01-31T12:07:04.427Z,67.80
2018-01-31T12:09:36.194Z,67.80
2018-01-31T12:12:03.830Z,67.80
2018-01-31T12:17:33.025Z,67.80
2018-01-31T12:20:12.380Z,67.90
2018-01-31T12:22:52.568Z,68.40
2018-01-31T12:25:32.186Z,67.90
2018-01-31T12:28:12.446Z,67.90
2018-01-31T12:30:42.156Z,67.90
2018-01-31T12:33:17.377Z,67.90
2018-01-31T12:35:56.938Z,67.90
2018-01-31T12:38:37.363Z,68.30
2018-01-31T12:41:04.426Z,68.00
2018-01-31T12:43:31.696Z,68.00
2018-01-31T12:46:11.308Z,68.00
2018-01-31T12:48:50.885Z,67.90
2018-01-31T12:54:29.330Z,68.00
2018-01-31T12:57:09.607Z,68.00
2018-01-31T12:59:49.130Z,68.00
2018-01-31T13:05:15.520Z,68.00
2018-01-31T13:07:55.125Z,68.00
2018-01-31T13:10:35.345Z,68.00
2018-01-31T13:13:15.037Z,68.00
2018-01-31T13:19:02.375Z,67.90
2018-01-31T13:21:42.658Z,68.10
2018-01-31T13:24:22.182Z,68.10
2018-01-31T13:27:02.543Z,68.10
2018-01-31T13:29:31.523Z,68.20
2018-01-31T13:32:11.852Z,68.90
2018-01-31T13:34:51.491Z,68.00
2018-01-31T13:37:36.984Z,68.00
2018-01-31T13:40:31.481Z,68.00
2018-01-31T13:43:11.040Z,68.00
2018-01-31T13:45:50.473Z,68.00
2018-01-31T13:48:30.660Z,68.00
2018-01-31T13:51:10.064Z,68.00
2018-01-31T13:53:49.620Z,68.00
2018-01-31T13:56:29.775Z,68.00
2018-01-31T13:59:09.952Z,68.10
2018-01-31T14:01:49.687Z,68.00
2018-01-31T14:04:30.777Z,68.00
2018-01-31T14:07:10.290Z,68.00
2018-01-31T14:09:49.700Z,68.00
2018-01-31T14:12:29.248Z,67.60
2018-01-31T14:18:08.836Z,68.00
2018-01-31T14:20:48.294Z,68.10
2018-01-31T14:26:31.008Z,68.00
2018-01-31T14:29:21.316Z,68.10
2018-01-31T14:32:01.577Z,68.10
2018-01-31T14:34:41.829Z,68.10
2018-01-31T14:37:09.664Z,68.10
2018-01-31T14:39:36.961Z,68.00
2018-01-31T14:42:04.090Z,68.10
2018-01-31T14:44:31.160Z,68.10
2018-01-31T14:46:59.116Z,68.10
2018-01-31T14:49:27.006Z,68.90
2018-01-31T14:51:54.076Z,68.00
2018-01-31T14:54:21.181Z,68.00
2018-01-31T14:56:49.012Z,69.10
2018-01-31T14:59:16.086Z,68.00
2018-01-31T15:01:43.162Z,68.00
2018-01-31T15:04:11.012Z,68.00
2018-01-31T15:06:38.077Z,68.00
2018-01-31T15:09:05.932Z,68.00
2018-01-31T15:11:33.819Z,68.00
2018-01-31T15:14:02.145Z,68.00
2018-01-31T15:16:29.323Z,68.00
2018-01-31T15:18:56.383Z,68.00
2018-01-31T15:21:24.358Z,68.00
2018-01-31T15:23:52.196Z,68.00
2018-01-31T15:26:19.374Z,68.00
2018-01-31T15:28:47.240Z,68.10
2018-01-31T15:31:15.102Z,68.00
2018-01-31T15:33:43.931Z,68.10
2018-01-31T15:36:11.026Z,68.10
2018-01-31T15:38:38.174Z,68.00
2018-01-31T15:41:05.243Z,68.00
2018-01-31T15:43:33.282Z,67.40
2018-01-31T15:46:00.603Z,68.10
2018-01-31T15:48:27.667Z,68.10
2018-01-31T15:50:54.726Z,68.10
2018-01-31T15:53:21.817Z,68.10
2018-01-31T15:55:49.684Z,68.10
2018-01-31T15:58:17.515Z,68.90
2018-01-31T16:00:44.598Z,68.00
2018-01-31T16:03:11.744Z,68.10
2018-01-31T16:05:38.808Z,68.10
2018-01-31T16:08:06.673Z,68.00
2018-01-31T16:10:34.543Z,68.10
2018-01-31T16:13:02.401Z,68.20
2018-01-31T16:15:30.694Z,68.30
2018-01-31T16:17:59.062Z,68.00
2018-01-31T16:20:38.505Z,68.90
2018-01-31T16:23:06.838Z,68.20
2018-01-31T16:25:34.406Z,68.00
2018-01-31T16:28:14.511Z,68.20
2018-01-31T16:30:47.106Z,68.20
2018-01-31T16:33:25.469Z,68.20
2018-01-31T16:35:53.154Z,68.20
2018-01-31T16:38:21.503Z,68.10
2018-01-31T16:40:49.203Z,68.10
2018-01-31T16:43:17.579Z,68.10
2018-01-31T16:45:45.953Z,68.30
2018-01-31T16:48:14.296Z,68.10
2018-01-31T16:50:41.880Z,68.10
2018-01-31T16:53:09.550Z,68.20
2018-01-31T16:55:37.227Z,68.20
2018-01-31T16:58:05.564Z,68.20
2018-01-31T17:00:33.173Z,68.20
2018-01-31T17:03:01.694Z,68.00
2018-01-31T17:05:29.287Z,68.10
2018-01-31T17:07:57.006Z,68.10
2018-01-31T17:10:24.625Z,68.20
2018-01-31T17:12:52.213Z,68.10
2018-01-31T17:15:19.863Z,68.20
2018-01-31T17:17:48.275Z,68.10
2018-01-31T17:20:15.844Z,68.20
2018-01-31T17:22:43.479Z,68.10
2018-01-31T17:25:11.538Z,68.10
2018-01-31T17:27:39.893Z,68.20
2018-01-31T17:30:07.475Z,68.20
2018-01-31T17:32:35.847Z,68.20
2018-01-31T17:35:04.190Z,68.50
2018-01-31T17:37:31.955Z,68.10
2018-01-31T17:40:00.301Z,68.10
2018-01-31T17:42:28.288Z,68.10
2018-01-31T17:44:55.919Z,68.20
2018-01-31T17:47:24.279Z,68.20
2018-01-31T17:49:51.859Z,68.20
2018-01-31T17:52:20.194Z,68.10
2018-01-31T17:54:47.919Z,68.10
2018-01-31T17:57:15.971Z,68.10
2018-01-31T17:59:44.312Z,68.20
2018-01-31T18:02:11.980Z,68.20
2018-01-31T18:04:39.685Z,68.20
2018-01-31T18:07:07.263Z,68.20
2018-01-31T18:09:34.887Z,68.20
2018-01-31T18:12:03.280Z,68.20
2018-01-31T18:14:31.697Z,68.20
2018-01-31T18:16:59.271Z,68.20
2018-01-31T18:19:26.843Z,68.90
2018-01-31T18:21:54.419Z,68.20
2018-01-31T18:24:22.099Z,68.20
2018-01-31T18:26:50.443Z,68.20
2018-01-31T18:29:18.048Z,68.20
2018-01-31T18:31:46.394Z,68.20
2018-01-31T18:34:14.188Z,68.20
2018-01-31T18:36:43.025Z,68.20
2018-01-31T18:39:10.626Z,68.20
2018-01-31T18:41:38.996Z,68.20
2018-01-31T18:44:06.713Z,68.20
2018-01-31T18:46:34.302Z,68.20
2018-01-31T18:49:02.100Z,68.20
2018-01-31T18:51:29.734Z,68.20
2018-01-31T18:53:57.326Z,68.20
2018-01-31T18:56:24.951Z,68.20
2018-01-31T18:58:52.527Z,68.20
2018-01-31T19:01:20.973Z,68.20
2018-01-31T19:03:48.691Z,68.20
2018-01-31T19:06:16.323Z,68.20
2018-01-31T19:08:44.202Z,68.20
2018-01-31T19:11:11.827Z,68.20
2018-01-31T19:13:39.667Z,68.20
2018-01-31T19:16:07.292Z,68.20
2018-01-31T19:18:35.673Z,68.30
2018-01-31T19:21:04.103Z,68.30
2018-01-31T19:23:31.726Z,68.20
2018-01-31T19:25:59.464Z,68.20
2018-01-31T19:28:27.108Z,68.20
2018-01-31T19:30:54.723Z,68.20
2018-01-31T19:33:22.514Z,68.20
2018-01-31T19:35:50.346Z,68.20
2018-01-31T19:38:18.085Z,68.20
2018-01-31T19:40:45.678Z,68.20
2018-01-31T19:43:13.440Z,68.20
2018-01-31T19:45:41.882Z,68.30
2018-01-31T19:48:09.534Z,68.10
2018-01-31T19:50:37.373Z,68.20
2018-01-31T19:53:05.056Z,68.20
2018-01-31T19:55:32.658Z,68.30
2018-01-31T19:58:00.341Z,68.10
2018-01-31T20:00:28.751Z,68.20
2018-01-31T20:02:56.371Z,68.10
2018-01-31T20:05:24.036Z,68.10
2018-01-31T20:07:51.736Z,68.20
2018-01-31T20:10:20.221Z,68.20
2018-01-31T20:12:47.826Z,68.20
2018-01-31T20:15:15.428Z,68.20
2018-01-31T20:17:43.771Z,68.30
2018-01-31T20:20:11.440Z,68.10
2018-01-31T20:22:39.028Z,68.20
2018-01-31T20:25:06.650Z,68.20
2018-01-31T20:27:34.231Z,68.20
2018-01-31T20:30:02.217Z,68.20
2018-01-31T20:32:30.565Z,68.20
2018-01-31T20:34:58.160Z,68.20
2018-01-31T20:37:26.500Z,68.20
2018-01-31T20:39:54.579Z,68.10
2018-01-31T20:42:22.323Z,68.20
2018-01-31T20:44:51.055Z,68.10
2018-01-31T20:47:18.692Z,68.20
2018-01-31T20:49:46.364Z,68.10
2018-01-31T20:52:13.941Z,68.30
2018-01-31T20:54:41.511Z,68.20
2018-01-31T20:57:09.859Z,68.20
2018-01-31T20:59:37.447Z,68.20
2018-01-31T21:02:05.835Z,65.80
2018-01-31T21:04:34.252Z,64.30
2018-01-31T21:07:01.865Z,64.20
2018-01-31T21:09:30.305Z,62.10
2018-01-31T21:11:57.924Z,62.10
2018-01-31T21:14:26.310Z,60.90
2018-01-31T21:16:55.604Z,60.40
2018-01-31T21:19:24.122Z,60.10
2018-01-31T21:21:51.705Z,59.90
2018-01-31T21:24:19.343Z,59.60
2018-01-31T21:26:47.056Z,59.50
2018-01-31T21:29:15.689Z,59.20
2018-01-31T21:31:43.462Z,59.20
2018-01-31T21:34:11.321Z,59.80
2018-01-31T21:36:39.001Z,60.80
2018-01-31T21:39:06.623Z,61.90
2018-01-31T21:41:35.234Z,63.80
2018-01-31T21:44:02.928Z,63.70
2018-01-31T21:46:30.549Z,64.40
2018-01-31T21:48:58.240Z,65.00
2018-01-31T21:51:25.901Z,65.30
2018-01-31T21:53:53.735Z,65.70
2018-01-31T21:56:21.312Z,66.10
2018-01-31T21:58:48.884Z,66.40
2018-01-31T22:01:16.498Z,66.70
2018-01-31T22:03:44.949Z,67.10
2018-01-31T22:06:12.612Z,67.10
2018-01-31T22:08:40.311Z,67.20
2018-01-31T22:11:08.731Z,67.60
2018-01-31T22:13:36.316Z,67.60
2018-01-31T22:16:03.964Z,67.60
2018-01-31T22:18:31.616Z,67.70
2018-01-31T22:20:59.293Z,67.80
2018-01-31T22:23:26.910Z,67.90
2018-01-31T22:25:55.584Z,68.00
2018-01-31T22:28:23.883Z,68.00
2018-01-31T22:30:51.525Z,68.00
2018-01-31T22:33:19.898Z,68.10
2018-01-31T22:35:47.473Z,68.10
2018-01-31T22:38:15.842Z,68.20
2018-01-31T22:40:43.410Z,68.10
2018-01-31T22:43:11.763Z,68.10
2018-01-31T22:45:39.333Z,68.10
2018-01-31T22:48:06.952Z,68.20
2018-01-31T22:50:34.520Z,68.20
2018-01-31T22:53:02.182Z,68.20
2018-01-31T22:55:29.759Z,68.20
2018-01-31T22:57:57.322Z,68.20
2018-01-31T23:00:25.176Z,68.20
2018-01-31T23:02:52.776Z,68.20
2018-01-31T23:05:20.445Z,68.20
2018-01-31T23:07:48.820Z,68.20
2018-01-31T23:10:16.400Z,68.20
2018-01-31T23:12:50.283Z,68.30
2018-01-31T23:15:17.874Z,68.30
2018-01-31T23:17:51.097Z,68.30
2018-01-31T23:20:18.673Z,68.30
2018-01-31T23:22:46.548Z,68.30
2018-01-31T23:25:14.111Z,68.30
2018-01-31T23:27:41.698Z,68.30
2018-01-31T23:30:09.275Z,68.30
2018-01-31T23:32:37.636Z,68.30
2018-01-31T23:35:05.258Z,68.30
2018-01-31T23:37:32.876Z,68.50
2018-01-31T23:40:01.217Z,68.30
2018-01-31T23:42:28.785Z,68.30
2018-01-31T23:44:56.369Z,68.30
2018-01-31T23:47:24.951Z,68.40
2018-01-31T23:49:53.623Z,68.30
2018-01-31T23:52:21.193Z,68.20
2018-01-31T23:54:48.772Z,68.30
2018-01-31T23:57:17.142Z,68.20
2018-01-31T23:59:45.524Z,68.30
